Time;durP1;ratioP1;P1;durP2;ratioP2;P2;SDS_P1;SDS_P2;PMS_P1;PMS_P2;Temp;Humidity;BMP_temperature;BMP_pressure;BME280_temperature;BME280_humidity;BME280_pressure;Samples;Min_cycle;Max_cycle;Signal;HPM_P1;HPM_P2
2022/12/12 00:01:11;;;;;;;44.83;13.52;;;;;;;;;;4977890;28;20033;-93
2022/12/12 00:03:37;;;;;;;43.22;14.32;;;;;;;;;;4984631;28;20540;-95
2022/12/12 00:06:04;;;;;;;41.60;14.25;;;;;;;;;;4978728;28;20022;-94
2022/12/12 00:08:31;;;;;;;41.63;13.43;;;;;;;;;;4971400;28;20033;-93
2022/12/12 00:10:57;;;;;;;40.65;13.27;;;;;;;;;;4978636;28;20943;-92
2022/12/12 00:13:23;;;;;;;38.05;13.23;;;;;;;;;;4970193;28;20044;-93
2022/12/12 00:15:50;;;;;;;41.38;12.85;;;;;;;;;;4973230;28;20038;-92
2022/12/12 00:18:16;;;;;;;49.45;13.80;;;;;;;;;;4970560;28;20031;-93
2022/12/12 00:20:42;;;;;;;38.85;14.25;;;;;;;;;;4963526;28;20030;-93
2022/12/12 00:23:09;;;;;;;29.65;10.02;;;;;;;;;;4987617;28;20332;-93
2022/12/12 00:25:35;;;;;;;38.33;13.68;;;;;;;;;;4956650;28;20038;-93
2022/12/12 00:28:02;;;;;;;38.25;13.75;;;;;;;;;;4973405;28;20185;-94
2022/12/12 00:30:28;;;;;;;34.92;12.70;;;;;;;;;;4964867;28;20117;-93
2022/12/12 00:32:54;;;;;;;41.50;13.95;;;;;;;;;;4965238;28;20053;-94
2022/12/12 00:35:20;;;;;;;48.22;14.40;;;;;;;;;;4963319;28;20041;-93
2022/12/12 00:37:46;;;;;;;43.58;14.23;;;;;;;;;;4978242;28;20041;-94
2022/12/12 00:40:12;;;;;;;40.10;13.05;;;;;;;;;;4963914;28;20141;-92
2022/12/12 00:42:38;;;;;;;44.65;14.40;;;;;;;;;;4979935;28;20126;-93
2022/12/12 00:45:05;;;;;;;35.55;12.10;;;;;;;;;;4967236;28;20082;-94
2022/12/12 00:47:31;;;;;;;42.63;14.27;;;;;;;;;;4963199;28;20168;-92
2022/12/12 00:49:57;;;;;;;43.63;14.95;;;;;;;;;;4973571;28;20084;-93
2022/12/12 00:52:23;;;;;;;38.10;13.38;;;;;;;;;;4984182;28;20128;-92
2022/12/12 00:54:49;;;;;;;40.22;14.00;;;;;;;;;;4986621;28;20033;-93
2022/12/12 00:57:15;;;;;;;40.85;14.30;;;;;;;;;;5008964;28;20029;-93
2022/12/12 00:59:41;;;;;;;49.67;14.13;;;;;;;;;;4997149;28;20481;-93
2022/12/12 01:02:07;;;;;;;40.72;14.60;;;;;;;;;;4974994;28;20030;-93
2022/12/12 01:04:33;;;;;;;41.30;13.95;;;;;;;;;;4983034;28;20034;-92
2022/12/12 01:06:59;;;;;;;40.28;13.23;;;;;;;;;;5004242;28;20093;-93
2022/12/12 01:09:25;;;;;;;42.22;14.20;;;;;;;;;;5002541;28;20025;-94
2022/12/12 01:11:51;;;;;;;41.53;14.65;;;;;;;;;;4980190;28;20057;-93
2022/12/12 01:14:17;;;;;;;47.83;15.15;;;;;;;;;;4978976;28;20069;-94
2022/12/12 01:16:43;;;;;;;38.67;13.27;;;;;;;;;;4974915;28;20030;-93
2022/12/12 01:19:09;;;;;;;36.65;12.55;;;;;;;;;;4984061;28;20040;-94
2022/12/12 01:21:37;;;;;;;38.72;13.50;;;;;;;;;;4979917;28;20022;-93
2022/12/12 01:24:04;;;;;;;47.13;14.77;;;;;;;;;;4982949;28;20026;-93
2022/12/12 01:26:30;;;;;;;42.55;14.02;;;;;;;;;;4977892;28;20041;-93
2022/12/12 01:28:56;;;;;;;43.75;13.10;;;;;;;;;;4985233;28;20437;-93
2022/12/12 01:31:22;;;;;;;41.35;14.52;;;;;;;;;;4983429;28;20034;-93
2022/12/12 01:33:48;;;;;;;45.97;14.68;;;;;;;;;;4977504;28;20475;-93
2022/12/12 01:36:19;;;;;;;41.47;13.15;;;;;;;;;;4982210;28;20508;-92
2022/12/12 01:38:46;;;;;;;42.35;13.77;;;;;;;;;;4999894;28;20037;-93
2022/12/12 01:41:13;;;;;;;42.00;13.50;;;;;;;;;;4974444;28;20042;-93
2022/12/12 01:43:40;;;;;;;39.80;13.20;;;;;;;;;;4981828;28;20034;-93
2022/12/12 01:46:07;;;;;;;44.03;13.65;;;;;;;;;;4999323;28;20461;-92
2022/12/12 01:48:39;;;;;;;39.55;13.75;;;;;;;;;;4999352;28;20042;-92
2022/12/12 01:51:07;;;;;;;41.70;14.40;;;;;;;;;;5001790;28;20036;-93
2022/12/12 01:53:34;;;;;;;43.90;13.57;;;;;;;;;;5000859;28;20034;-93
2022/12/12 01:56:02;;;;;;;42.83;13.48;;;;;;;;;;4997540;28;20015;-96
2022/12/12 01:58:29;;;;;;;46.47;14.52;;;;;;;;;;4999972;28;20021;-96
2022/12/12 02:00:55;;;;;;;44.65;14.43;;;;;;;;;;4988289;28;20037;-96
2022/12/12 02:03:22;;;;;;;40.58;14.80;;;;;;;;;;4976012;28;20061;-96
2022/12/12 02:05:53;;;;;;;45.05;13.70;;;;;;;;;;4997960;28;20113;-96
2022/12/12 02:08:20;;;;;;;40.47;13.10;;;;;;;;;;4998849;28;20046;-96
2022/12/12 02:10:47;;;;;;;43.95;13.77;;;;;;;;;;4994884;28;20037;-96
2022/12/12 02:13:15;;;;;;;36.15;11.85;;;;;;;;;;4979614;28;20045;-96
2022/12/12 02:15:43;;;;;;;29.50;10.98;;;;;;;;;;5000827;28;20125;-96
2022/12/12 02:18:21;;;;;;;36.67;11.98;;;;;;;;;;4997868;28;20027;-96
2022/12/12 02:21:07;;;;;;;42.53;14.13;;;;;;;;;;4996878;28;20069;-96
2022/12/12 02:23:42;;;;;;;31.27;12.77;;;;;;;;;;4998778;28;20064;-96
2022/12/12 02:26:27;;;;;;;34.28;11.52;;;;;;;;;;4994222;28;20033;-96
2022/12/12 02:29:12;;;;;;;45.28;14.07;;;;;;;;;;4991513;28;20398;-96
2022/12/12 02:31:57;;;;;;;40.88;14.45;;;;;;;;;;4996332;28;20027;-96
2022/12/12 02:34:45;;;;;;;40.03;12.95;;;;;;;;;;4995369;28;20029;-96
2022/12/12 02:37:11;;;;;;;40.13;13.02;;;;;;;;;;4994403;28;20022;-96
2022/12/12 02:39:40;;;;;;;37.63;13.75;;;;;;;;;;4991337;28;20088;-96
2022/12/12 02:42:22;;;;;;;36.63;12.70;;;;;;;;;;4989558;28;20026;-96
2022/12/12 02:45:08;;;;;;;41.53;12.98;;;;;;;;;;4989969;28;20098;-96
2022/12/12 02:47:39;;;;;;;41.97;14.32;;;;;;;;;;4997418;28;20409;-96
2022/12/12 02:50:12;;;;;;;51.05;13.63;;;;;;;;;;4997638;28;20057;-94
2022/12/12 02:52:41;;;;;;;45.47;14.57;;;;;;;;;;4997901;28;20440;-96
2022/12/12 02:55:08;;;;;;;40.35;13.70;;;;;;;;;;4997418;28;20051;-96
2022/12/12 02:57:34;;;;;;;40.85;13.15;;;;;;;;;;4994343;28;20026;-95
2022/12/12 03:00:06;;;;;;;35.45;11.63;;;;;;;;;;4975001;28;20026;-95
2022/12/12 03:02:47;;;;;;;34.03;12.57;;;;;;;;;;5000290;28;20280;-96
2022/12/12 03:08:29;;;;;;;42.55;13.35;;;;;;;;;;5016189;28;20052;-96
2022/12/12 03:11:03;;;;;;;37.65;13.15;;;;;;;;;;5012843;28;20070;-96
2022/12/12 03:13:41;;;;;;;33.85;12.38;;;;;;;;;;5006188;28;20506;-95
2022/12/12 03:16:13;;;;;;;42.95;13.60;;;;;;;;;;4986770;28;20061;-96
2022/12/12 03:18:52;;;;;;;41.17;14.23;;;;;;;;;;4995166;28;20459;-95
2022/12/12 03:21:22;;;;;;;33.65;12.25;;;;;;;;;;4995405;28;20502;-95
2022/12/12 03:23:50;;;;;;;33.30;12.55;;;;;;;;;;5007258;28;20041;-96
2022/12/12 03:26:21;;;;;;;39.53;12.93;;;;;;;;;;5009607;28;20030;-96
2022/12/12 03:29:02;;;;;;;40.95;14.20;;;;;;;;;;5015078;28;20021;-94
2022/12/12 03:31:34;;;;;;;32.85;12.70;;;;;;;;;;5023819;28;20014;-94
2022/12/12 03:34:05;;;;;;;38.05;12.90;;;;;;;;;;5018669;28;20053;-95
2022/12/12 03:36:35;;;;;;;35.67;13.45;;;;;;;;;;5017147;28;20038;-95
2022/12/12 03:39:06;;;;;;;42.45;12.85;;;;;;;;;;5029305;28;20034;-95
2022/12/12 03:41:39;;;;;;;34.38;12.20;;;;;;;;;;5008326;28;20030;-96
2022/12/12 03:44:11;;;;;;;35.95;11.88;;;;;;;;;;5008788;28;20045;-96
2022/12/12 03:46:43;;;;;;;39.95;13.00;;;;;;;;;;5005190;28;20030;-96
2022/12/12 03:49:15;;;;;;;37.67;13.20;;;;;;;;;;4988149;28;20069;-95
2022/12/12 03:51:47;;;;;;;33.92;12.80;;;;;;;;;;4982055;28;20026;-96
2022/12/12 03:54:16;;;;;;;33.28;11.88;;;;;;;;;;4988173;28;20351;-96
2022/12/12 03:56:46;;;;;;;32.38;11.77;;;;;;;;;;4983665;28;20106;-95
2022/12/12 03:59:16;;;;;;;46.90;13.77;;;;;;;;;;4983873;28;20127;-96
2022/12/12 04:01:57;;;;;;;45.20;12.73;;;;;;;;;;4976497;28;20031;-96
2022/12/12 04:04:24;;;;;;;40.65;13.25;;;;;;;;;;4979848;28;20077;-96
2022/12/12 04:06:54;;;;;;;35.40;12.45;;;;;;;;;;4991757;28;20035;-96
2022/12/12 04:15:17;;;;;;;34.78;11.90;;;;;;;;;;4997087;28;20041;-94
2022/12/12 04:18:07;;;;;;;36.55;13.00;;;;;;;;;;4975890;28;20070;-96
2022/12/12 04:23:40;;;;;;;38.72;13.55;;;;;;;;;;5003352;28;20085;-96
2022/12/12 04:29:07;;;;;;;36.30;11.35;;;;;;;;;;4988023;28;20116;-95
2022/12/12 04:31:36;;;;;;;32.05;12.02;;;;;;;;;;4974975;28;20482;-96
2022/12/12 04:34:07;;;;;;;36.88;12.65;;;;;;;;;;4981730;28;20030;-96
2022/12/12 04:36:34;;;;;;;35.22;13.05;;;;;;;;;;4983599;28;20029;-96
2022/12/12 04:39:05;;;;;;;31.75;12.07;;;;;;;;;;4984375;28;20031;-96
2022/12/12 04:41:34;;;;;;;24.83;10.02;;;;;;;;;;4981086;28;20038;-96
2022/12/12 04:44:06;;;;;;;33.08;11.70;;;;;;;;;;4980974;28;20354;-96
2022/12/12 04:46:33;;;;;;;36.90;11.65;;;;;;;;;;4979853;28;20050;-96
2022/12/12 04:49:04;;;;;;;38.22;12.27;;;;;;;;;;4980152;28;20073;-96
2022/12/12 04:51:43;;;;;;;40.67;12.90;;;;;;;;;;5000029;28;20038;-95
2022/12/12 04:54:21;;;;;;;35.83;12.80;;;;;;;;;;4996947;28;20036;-96
2022/12/12 04:56:53;;;;;;;31.15;12.35;;;;;;;;;;5007966;28;20026;-96
2022/12/12 04:59:20;;;;;;;30.63;12.25;;;;;;;;;;5000963;28;20022;-96
2022/12/12 05:01:52;;;;;;;33.92;11.30;;;;;;;;;;4999850;28;20033;-96
2022/12/12 05:04:31;;;;;;;38.65;12.65;;;;;;;;;;5000039;28;20199;-96
2022/12/12 05:07:02;;;;;;;33.80;12.07;;;;;;;;;;5004118;28;20030;-96
2022/12/12 05:09:28;;;;;;;38.10;12.52;;;;;;;;;;4997566;28;20033;-96
2022/12/12 05:11:55;;;;;;;32.63;12.60;;;;;;;;;;4993978;28;20563;-96
2022/12/12 05:14:33;;;;;;;33.72;12.35;;;;;;;;;;5002548;28;20041;-95
2022/12/12 05:17:03;;;;;;;34.85;11.32;;;;;;;;;;5000549;28;20026;-96
2022/12/12 05:19:30;;;;;;;24.48;10.57;;;;;;;;;;5009086;28;20044;-96
2022/12/12 05:22:04;;;;;;;35.13;12.70;;;;;;;;;;4984654;28;20037;-96
2022/12/12 05:24:37;;;;;;;30.35;11.40;;;;;;;;;;4993245;28;20105;-96
2022/12/12 05:27:04;;;;;;;29.33;12.75;;;;;;;;;;4981295;28;20271;-96
2022/12/12 05:29:32;;;;;;;27.58;11.50;;;;;;;;;;4977059;28;20041;-96
2022/12/12 05:31:58;;;;;;;28.05;10.98;;;;;;;;;;4991348;28;20038;-96
2022/12/12 05:34:25;;;;;;;27.15;10.95;;;;;;;;;;4982362;28;20481;-96
2022/12/12 05:36:51;;;;;;;26.27;10.63;;;;;;;;;;4985391;28;20049;-96
2022/12/12 05:39:17;;;;;;;36.13;12.57;;;;;;;;;;4988517;28;20034;-96
2022/12/12 05:41:43;;;;;;;30.17;11.27;;;;;;;;;;4986768;28;20034;-96
2022/12/12 05:44:13;;;;;;;26.45;10.50;;;;;;;;;;4990235;28;20053;-96
2022/12/12 05:46:42;;;;;;;34.20;12.25;;;;;;;;;;4995982;28;20069;-96
2022/12/12 05:49:08;;;;;;;30.73;11.13;;;;;;;;;;5003408;28;20084;-96
2022/12/12 05:51:35;;;;;;;34.45;11.50;;;;;;;;;;4989193;28;20046;-96
2022/12/12 05:54:04;;;;;;;33.92;11.77;;;;;;;;;;4987575;28;21757;-96
2022/12/12 05:56:31;;;;;;;27.90;11.07;;;;;;;;;;5006362;28;20389;-96
2022/12/12 05:58:57;;;;;;;31.65;11.70;;;;;;;;;;4974648;28;20084;-96
2022/12/12 06:01:23;;;;;;;39.08;12.10;;;;;;;;;;4996945;28;20033;-96
2022/12/12 06:03:50;;;;;;;33.15;11.35;;;;;;;;;;4996328;28;20088;-96
2022/12/12 06:06:16;;;;;;;38.17;12.80;;;;;;;;;;4999121;28;20029;-96
2022/12/12 06:08:45;;;;;;;33.25;11.35;;;;;;;;;;4997482;28;20041;-96
2022/12/12 06:11:11;;;;;;;32.03;12.30;;;;;;;;;;4987895;28;20041;-96
2022/12/12 06:13:38;;;;;;;35.05;12.07;;;;;;;;;;4980730;28;20034;-96
2022/12/12 06:16:14;;;;;;;31.30;13.02;;;;;;;;;;5000455;28;20165;-96
2022/12/12 06:18:41;;;;;;;30.52;11.02;;;;;;;;;;4993707;28;20029;-95
2022/12/12 06:21:08;;;;;;;39.53;14.27;;;;;;;;;;4996704;28;20033;-96
2022/12/12 06:23:41;;;;;;;28.95;11.95;;;;;;;;;;4999248;28;20497;-96
2022/12/12 06:26:08;;;;;;;31.95;11.95;;;;;;;;;;4982325;28;20081;-96
2022/12/12 06:28:35;;;;;;;37.15;13.13;;;;;;;;;;5008224;28;20046;-96
2022/12/12 06:31:01;;;;;;;41.60;11.68;;;;;;;;;;5001295;28;20056;-95
2022/12/12 06:33:27;;;;;;;33.30;11.68;;;;;;;;;;4992011;28;20057;-96
2022/12/12 06:36:04;;;;;;;30.92;12.77;;;;;;;;;;4989460;28;20097;-96
2022/12/12 06:38:31;;;;;;;33.90;10.75;;;;;;;;;;5009036;28;20030;-96
2022/12/12 06:40:58;;;;;;;31.40;11.70;;;;;;;;;;5005110;28;20038;-96
2022/12/12 06:43:24;;;;;;;40.38;12.20;;;;;;;;;;4995645;28;20022;-96
2022/12/12 06:45:50;;;;;;;40.92;12.98;;;;;;;;;;4994817;28;20105;-96
2022/12/12 06:48:17;;;;;;;38.85;12.70;;;;;;;;;;4988982;28;20085;-95
2022/12/12 06:50:44;;;;;;;35.40;12.82;;;;;;;;;;4976000;28;20030;-95
2022/12/12 06:53:11;;;;;;;35.30;12.68;;;;;;;;;;4994543;28;20038;-94
2022/12/12 06:55:41;;;;;;;37.55;12.95;;;;;;;;;;4991409;28;20054;-95
2022/12/12 06:58:08;;;;;;;38.75;12.93;;;;;;;;;;4991031;28;20112;-96
2022/12/12 07:00:38;;;;;;;35.90;12.45;;;;;;;;;;4989187;28;20034;-96
2022/12/12 07:03:05;;;;;;;29.85;11.40;;;;;;;;;;4973049;28;20041;-96
2022/12/12 07:05:31;;;;;;;34.95;12.85;;;;;;;;;;4991577;28;20030;-96
2022/12/12 07:08:01;;;;;;;34.75;12.43;;;;;;;;;;4973763;28;20487;-96
2022/12/12 07:10:50;;;;;;;31.20;11.88;;;;;;;;;;4996814;28;20096;-96
2022/12/12 07:13:18;;;;;;;38.58;12.73;;;;;;;;;;5003314;28;20045;-96
2022/12/12 07:15:44;;;;;;;32.05;12.13;;;;;;;;;;4974227;28;21344;-96
2022/12/12 07:18:11;;;;;;;31.40;11.52;;;;;;;;;;4994001;28;20617;-94
2022/12/12 07:20:41;;;;;;;38.58;13.73;;;;;;;;;;4973422;28;20025;-94
2022/12/12 07:23:08;;;;;;;37.05;13.07;;;;;;;;;;4975500;28;20034;-94
2022/12/12 07:25:37;;;;;;;34.42;12.95;;;;;;;;;;4979623;28;20029;-96
2022/12/12 07:28:03;;;;;;;39.78;13.27;;;;;;;;;;4983181;28;20049;-96
2022/12/12 07:30:29;;;;;;;36.08;13.63;;;;;;;;;;4968049;28;20022;-95
2022/12/12 07:32:55;;;;;;;35.78;12.57;;;;;;;;;;4987826;28;20114;-95
2022/12/12 07:35:22;;;;;;;37.75;13.35;;;;;;;;;;4968822;28;20339;-95
2022/12/12 07:37:48;;;;;;;34.13;11.57;;;;;;;;;;4975838;28;20455;-96
2022/12/12 07:40:15;;;;;;;34.22;12.18;;;;;;;;;;4987326;28;20479;-95
2022/12/12 07:42:41;;;;;;;32.67;11.93;;;;;;;;;;4983247;28;20026;-96
2022/12/12 07:45:08;;;;;;;36.60;12.93;;;;;;;;;;4969926;28;20049;-95
2022/12/12 07:47:34;;;;;;;33.42;12.10;;;;;;;;;;4990237;28;20323;-96
2022/12/12 07:50:00;;;;;;;32.47;13.05;;;;;;;;;;4969980;28;20066;-95
2022/12/12 07:52:29;;;;;;;43.30;14.02;;;;;;;;;;4949311;28;20062;-96
2022/12/12 07:54:55;;;;;;;32.95;12.55;;;;;;;;;;4969456;28;20039;-96
2022/12/12 07:57:22;;;;;;;32.13;11.60;;;;;;;;;;4970851;28;20035;-94
2022/12/12 07:59:48;;;;;;;33.38;12.82;;;;;;;;;;4973615;28;20038;-95
2022/12/12 08:02:14;;;;;;;36.28;12.85;;;;;;;;;;4989918;28;20046;-95
2022/12/12 08:04:41;;;;;;;32.83;13.52;;;;;;;;;;4979892;28;20030;-96
2022/12/12 08:07:07;;;;;;;36.20;14.23;;;;;;;;;;4993079;28;20116;-96
2022/12/12 08:09:33;;;;;;;28.85;11.93;;;;;;;;;;4979394;28;20150;-95
2022/12/12 08:12:00;;;;;;;25.85;10.13;;;;;;;;;;5003895;28;20026;-96
2022/12/12 08:14:26;;;;;;;33.78;13.07;;;;;;;;;;4973727;28;20370;-96
2022/12/12 08:16:52;;;;;;;33.55;12.63;;;;;;;;;;4979481;28;20062;-96
2022/12/12 08:19:19;;;;;;;32.75;12.73;;;;;;;;;;4984506;28;20030;-95
2022/12/12 08:21:48;;;;;;;33.97;11.98;;;;;;;;;;4989044;28;20041;-95
2022/12/12 08:24:20;;;;;;;34.65;12.82;;;;;;;;;;5003745;28;20120;-96
2022/12/12 08:26:49;;;;;;;35.20;13.20;;;;;;;;;;5000244;28;20120;-96
2022/12/12 08:29:16;;;;;;;38.03;12.77;;;;;;;;;;5002244;28;20070;-96
2022/12/12 08:31:42;;;;;;;42.97;13.40;;;;;;;;;;4997147;28;20470;-96
2022/12/12 08:34:09;;;;;;;37.17;13.70;;;;;;;;;;5009405;28;20045;-96
2022/12/12 08:36:35;;;;;;;33.25;13.48;;;;;;;;;;4978324;28;20042;-96
2022/12/12 08:39:08;;;;;;;38.85;14.80;;;;;;;;;;5001283;28;20053;-96
2022/12/12 08:41:39;;;;;;;35.78;13.40;;;;;;;;;;5013779;28;20026;-96
2022/12/12 08:44:05;;;;;;;36.97;13.32;;;;;;;;;;5003315;28;20192;-96
2022/12/12 08:46:34;;;;;;;44.13;14.15;;;;;;;;;;4992466;28;20068;-96
2022/12/12 08:49:01;;;;;;;35.20;13.70;;;;;;;;;;5002348;28;20093;-96
2022/12/12 08:51:28;;;;;;;42.53;13.93;;;;;;;;;;4989128;28;20046;-96
2022/12/12 08:53:57;;;;;;;31.83;12.55;;;;;;;;;;5003275;28;20097;-96
2022/12/12 08:56:29;;;;;;;39.15;13.48;;;;;;;;;;5005061;28;20026;-95
2022/12/12 08:58:55;;;;;;;33.88;15.40;;;;;;;;;;5001692;28;20102;-96
2022/12/12 09:01:25;;;;;;;38.40;12.77;;;;;;;;;;5001234;28;20041;-96
2022/12/12 09:04:00;;;;;;;31.15;12.52;;;;;;;;;;5002291;28;20022;-96
2022/12/12 09:06:27;;;;;;;30.77;12.37;;;;;;;;;;4986984;28;20042;-96
2022/12/12 09:08:53;;;;;;;39.08;13.40;;;;;;;;;;4999537;28;20018;-96
2022/12/12 09:11:19;;;;;;;34.50;12.60;;;;;;;;;;4997930;28;20027;-96
2022/12/12 09:13:45;;;;;;;38.13;13.18;;;;;;;;;;4988472;28;20037;-96
2022/12/12 09:16:12;;;;;;;32.83;11.75;;;;;;;;;;4980629;28;20038;-96
2022/12/12 09:18:39;;;;;;;29.15;11.85;;;;;;;;;;4978729;28;20402;-94
2022/12/12 09:21:06;;;;;;;32.88;13.52;;;;;;;;;;4999443;28;20022;-96
2022/12/12 09:23:32;;;;;;;32.72;12.25;;;;;;;;;;4997538;28;20026;-96
2022/12/12 09:26:03;;;;;;;31.55;12.45;;;;;;;;;;4979410;28;20479;-96
2022/12/12 09:28:29;;;;;;;32.10;12.05;;;;;;;;;;5004554;28;20331;-95
2022/12/12 09:30:55;;;;;;;29.00;12.05;;;;;;;;;;4976090;28;20349;-96
2022/12/12 09:33:21;;;;;;;35.85;12.60;;;;;;;;;;4974706;28;20098;-96
2022/12/12 09:35:55;;;;;;;31.10;11.73;;;;;;;;;;4989579;28;20030;-95
2022/12/12 09:38:22;;;;;;;32.63;12.35;;;;;;;;;;5003083;28;20021;-96
2022/12/12 09:40:56;;;;;;;29.00;12.25;;;;;;;;;;5003059;28;20018;-96
2022/12/12 09:43:24;;;;;;;32.03;13.07;;;;;;;;;;4994440;28;20030;-96
2022/12/12 09:45:50;;;;;;;36.53;14.20;;;;;;;;;;4995817;28;20030;-95
2022/12/12 09:48:35;;;;;;;36.08;13.48;;;;;;;;;;5002159;28;20118;-96
2022/12/12 09:51:03;;;;;;;31.40;13.30;;;;;;;;;;5003404;28;20255;-95
2022/12/12 09:53:29;;;;;;;35.33;11.57;;;;;;;;;;4987637;28;20061;-96
2022/12/12 09:56:01;;;;;;;34.97;12.65;;;;;;;;;;4997170;28;20041;-96
2022/12/12 09:58:27;;;;;;;31.50;12.07;;;;;;;;;;4995885;28;20018;-96
2022/12/12 10:00:59;;;;;;;35.83;12.95;;;;;;;;;;4997082;28;20030;-96
2022/12/12 10:03:29;;;;;;;34.53;13.10;;;;;;;;;;4990358;28;20030;-96
2022/12/12 10:06:09;;;;;;;30.30;12.55;;;;;;;;;;4999317;28;20044;-92
2022/12/12 10:08:57;;;;;;;32.08;13.23;;;;;;;;;;4982777;28;20077;-93
2022/12/12 10:14:13;;;;;;;35.53;13.07;;;;;;;;;;5020466;28;20071;-92
2022/12/12 10:16:40;;;;;;;29.27;12.23;;;;;;;;;;5003551;28;20037;-93
2022/12/12 10:19:10;;;;;;;25.63;10.85;;;;;;;;;;4985501;28;20018;-93
2022/12/12 10:21:39;;;;;;;33.78;13.40;;;;;;;;;;4999732;28;20116;-94
2022/12/12 10:24:35;;;;;;;28.42;12.18;;;;;;;;;;4989643;28;20073;-93
2022/12/12 10:27:08;;;;;;;31.77;12.75;;;;;;;;;;4986148;28;20072;-92
2022/12/12 10:29:34;;;;;;;33.10;13.40;;;;;;;;;;4986788;28;20038;-92
2022/12/12 10:32:12;;;;;;;27.80;11.10;;;;;;;;;;4981856;28;20034;-92
2022/12/12 10:34:45;;;;;;;29.33;12.02;;;;;;;;;;5010445;28;20032;-93
2022/12/12 10:37:17;;;;;;;24.33;10.45;;;;;;;;;;4994045;28;20022;-92
2022/12/12 10:40:06;;;;;;;24.58;10.52;;;;;;;;;;4999641;28;20026;-94
2022/12/12 10:42:41;;;;;;;23.00;10.68;;;;;;;;;;4995256;28;20029;-93
2022/12/12 10:45:25;;;;;;;27.35;11.25;;;;;;;;;;4996613;28;20033;-92
2022/12/12 10:47:52;;;;;;;24.55;11.55;;;;;;;;;;4999287;28;20025;-92
2022/12/12 10:50:24;;;;;;;28.98;11.40;;;;;;;;;;4992098;28;20079;-92
2022/12/12 10:52:50;;;;;;;30.25;12.32;;;;;;;;;;4997467;28;20030;-93
2022/12/12 10:55:18;;;;;;;26.80;11.73;;;;;;;;;;4982662;28;20041;-92
2022/12/12 10:57:44;;;;;;;24.10;11.40;;;;;;;;;;4997371;28;20478;-93
2022/12/12 11:00:25;;;;;;;26.38;12.15;;;;;;;;;;4988800;28;20040;-92
2022/12/12 11:02:51;;;;;;;25.45;11.30;;;;;;;;;;5007018;28;20397;-93
2022/12/12 11:05:31;;;;;;;23.88;11.25;;;;;;;;;;4982811;28;20037;-92
2022/12/12 11:08:16;;;;;;;26.35;11.50;;;;;;;;;;5003681;28;20030;-92
2022/12/12 11:10:42;;;;;;;24.00;9.83;;;;;;;;;;5003879;28;20050;-92
2022/12/12 11:13:08;;;;;;;26.55;11.73;;;;;;;;;;4982366;28;20025;-93
2022/12/12 11:15:38;;;;;;;22.30;10.50;;;;;;;;;;4993354;28;20025;-93
2022/12/12 11:18:06;;;;;;;22.65;11.07;;;;;;;;;;4989897;28;20473;-92
2022/12/12 11:20:32;;;;;;;29.05;12.20;;;;;;;;;;5005884;28;20490;-93
2022/12/12 11:22:58;;;;;;;23.67;10.85;;;;;;;;;;5013971;28;20041;-93
2022/12/12 11:25:27;;;;;;;24.15;10.82;;;;;;;;;;4980720;28;20435;-93
2022/12/12 11:27:53;;;;;;;23.02;10.05;;;;;;;;;;4989608;28;20084;-92
2022/12/12 11:30:39;;;;;;;25.88;11.43;;;;;;;;;;4996836;28;20060;-93
2022/12/12 11:33:09;;;;;;;26.70;11.55;;;;;;;;;;4987186;28;20034;-94
2022/12/12 11:35:38;;;;;;;23.80;10.30;;;;;;;;;;4996790;28;20026;-92
2022/12/12 11:38:06;;;;;;;23.15;10.93;;;;;;;;;;5000916;28;20053;-93
2022/12/12 11:40:34;;;;;;;21.20;10.23;;;;;;;;;;4988270;28;20049;-92
2022/12/12 11:43:19;;;;;;;24.10;11.75;;;;;;;;;;5001762;28;20036;-94
2022/12/12 11:46:03;;;;;;;22.35;10.13;;;;;;;;;;5018584;28;20488;-93
2022/12/12 11:48:37;;;;;;;27.65;11.90;;;;;;;;;;5020415;28;20029;-93
2022/12/12 11:51:03;;;;;;;24.30;11.38;;;;;;;;;;5007990;28;20471;-93
2022/12/12 11:53:31;;;;;;;25.10;11.35;;;;;;;;;;4991269;28;20125;-93
2022/12/12 11:56:10;;;;;;;29.50;12.02;;;;;;;;;;5007315;28;20045;-92
2022/12/12 11:58:43;;;;;;;31.48;14.23;;;;;;;;;;5008894;28;20032;-93
2022/12/12 12:01:24;;;;;;;24.05;12.07;;;;;;;;;;5005015;28;20025;-93
2022/12/12 12:03:57;;;;;;;44.88;13.50;;;;;;;;;;5000013;28;20485;-93
2022/12/12 12:06:26;;;;;;;26.42;12.70;;;;;;;;;;5004734;28;20501;-92
2022/12/12 12:08:55;;;;;;;32.30;13.80;;;;;;;;;;5008656;28;20025;-93
2022/12/12 12:11:31;;;;;;;31.85;12.32;;;;;;;;;;5006869;28;20057;-93
2022/12/12 12:14:06;;;;;;;30.10;12.70;;;;;;;;;;4998107;28;20022;-93
2022/12/12 12:16:56;;;;;;;32.13;13.27;;;;;;;;;;4981027;28;20506;-93
2022/12/12 12:19:25;;;;;;;30.63;12.80;;;;;;;;;;5012613;28;20025;-93
2022/12/12 12:22:07;;;;;;;28.13;12.60;;;;;;;;;;5017956;28;20120;-93
2022/12/12 12:24:36;;;;;;;30.80;13.93;;;;;;;;;;5005463;28;20087;-93
2022/12/12 12:27:02;;;;;;;25.02;12.13;;;;;;;;;;5021418;28;20476;-93
2022/12/12 12:29:44;;;;;;;26.17;13.35;;;;;;;;;;5009097;28;20033;-93
2022/12/12 12:32:15;;;;;;;28.85;12.80;;;;;;;;;;5001278;28;20145;-95
2022/12/12 12:35:00;;;;;;;29.27;12.30;;;;;;;;;;5002123;28;20022;-94
2022/12/12 12:37:35;;;;;;;30.17;12.27;;;;;;;;;;5000955;28;20421;-94
2022/12/12 12:40:01;;;;;;;33.13;13.63;;;;;;;;;;5014641;28;20373;-93
2022/12/12 12:42:48;;;;;;;28.38;13.25;;;;;;;;;;5020426;28;20025;-93
2022/12/12 12:45:14;;;;;;;29.83;13.43;;;;;;;;;;5021418;28;20485;-93
2022/12/12 12:47:40;;;;;;;30.77;13.38;;;;;;;;;;5019756;28;20496;-94
2022/12/12 12:50:27;;;;;;;26.77;12.45;;;;;;;;;;5001361;28;20062;-93
2022/12/12 12:52:59;;;;;;;28.50;12.07;;;;;;;;;;5001519;28;20036;-93
2022/12/12 12:55:31;;;;;;;26.00;12.70;;;;;;;;;;5007403;28;20034;-94
2022/12/12 12:57:59;;;;;;;29.52;13.38;;;;;;;;;;5020592;28;20022;-94
2022/12/12 13:00:28;;;;;;;29.58;12.90;;;;;;;;;;5006849;28;20495;-93
2022/12/12 13:03:04;;;;;;;34.30;13.68;;;;;;;;;;5031070;28;20029;-93
2022/12/12 13:05:36;;;;;;;32.63;13.27;;;;;;;;;;5035727;28;20060;-93
2022/12/12 13:08:02;;;;;;;27.90;12.68;;;;;;;;;;5037376;28;20030;-94
2022/12/12 13:10:29;;;;;;;30.92;15.00;;;;;;;;;;5025253;28;20528;-93
2022/12/12 13:12:58;;;;;;;29.20;14.82;;;;;;;;;;5015885;28;20397;-93
2022/12/12 13:15:32;;;;;;;28.60;12.38;;;;;;;;;;4995923;28;20021;-94
2022/12/12 13:18:03;;;;;;;35.42;14.45;;;;;;;;;;5001336;28;20400;-92
2022/12/12 13:20:32;;;;;;;30.67;12.82;;;;;;;;;;5001474;28;20426;-93
2022/12/12 13:23:24;;;;;;;33.85;13.57;;;;;;;;;;5000188;28;20544;-93
2022/12/12 13:25:56;;;;;;;29.75;13.45;;;;;;;;;;4982084;28;20034;-94
2022/12/12 13:28:25;;;;;;;31.88;12.98;;;;;;;;;;4999961;28;20053;-93
2022/12/12 13:31:09;;;;;;;30.55;12.82;;;;;;;;;;5010815;28;20041;-94
2022/12/12 13:33:41;;;;;;;31.67;13.45;;;;;;;;;;4999796;28;20044;-93
2022/12/12 13:36:20;;;;;;;30.30;13.65;;;;;;;;;;4999855;28;20045;-93
2022/12/12 13:38:47;;;;;;;33.25;13.43;;;;;;;;;;4999241;28;20037;-93
2022/12/12 13:41:14;;;;;;;32.38;13.05;;;;;;;;;;4999107;28;20022;-93
2022/12/12 13:43:44;;;;;;;31.65;14.20;;;;;;;;;;4996269;28;20034;-94
2022/12/12 13:46:26;;;;;;;32.10;13.07;;;;;;;;;;4993442;28;20493;-94
2022/12/12 13:48:52;;;;;;;30.08;13.23;;;;;;;;;;4998071;28;20040;-93
2022/12/12 13:51:29;;;;;;;34.63;12.15;;;;;;;;;;4981947;28;20148;-94
2022/12/12 13:54:10;;;;;;;36.40;12.50;;;;;;;;;;5008650;28;20489;-93
2022/12/12 13:56:36;;;;;;;29.23;9.82;;;;;;;;;;4993604;28;20022;-94
2022/12/12 13:59:03;;;;;;;32.10;12.82;;;;;;;;;;4999543;28;20536;-93
2022/12/12 14:01:39;;;;;;;36.25;14.02;;;;;;;;;;4982250;28;20034;-93
2022/12/12 14:04:26;;;;;;;33.42;11.52;;;;;;;;;;4997947;28;20045;-93
2022/12/12 14:06:58;;;;;;;24.10;11.32;;;;;;;;;;5008731;28;20539;-93
2022/12/12 14:09:24;;;;;;;20.27;9.23;;;;;;;;;;5004668;28;20109;-93
2022/12/12 14:11:50;;;;;;;29.23;12.20;;;;;;;;;;4999094;28;20026;-93
2022/12/12 14:14:22;;;;;;;27.15;11.15;;;;;;;;;;4982590;28;20493;-94
2022/12/12 14:16:55;;;;;;;25.55;10.38;;;;;;;;;;5001011;28;20033;-93
2022/12/12 14:19:25;;;;;;;25.90;10.70;;;;;;;;;;4997863;28;20467;-93
2022/12/12 14:21:51;;;;;;;26.23;10.48;;;;;;;;;;4996894;28;20030;-93
2022/12/12 14:24:32;;;;;;;29.10;10.23;;;;;;;;;;4993612;28;20029;-93
2022/12/12 14:26:59;;;;;;;27.30;10.82;;;;;;;;;;4997746;28;20033;-93
2022/12/12 14:29:26;;;;;;;26.65;11.40;;;;;;;;;;4990622;28;20476;-92
2022/12/12 14:31:56;;;;;;;30.10;11.38;;;;;;;;;;4995397;28;20034;-93
2022/12/12 14:34:22;;;;;;;31.30;11.85;;;;;;;;;;4996220;28;20559;-93
2022/12/12 14:36:48;;;;;;;24.15;10.25;;;;;;;;;;4996901;28;20030;-94
2022/12/12 14:39:30;;;;;;;26.00;10.40;;;;;;;;;;4997771;28;20068;-92
2022/12/12 14:41:57;;;;;;;31.55;10.05;;;;;;;;;;4989654;28;20037;-93
2022/12/12 14:44:27;;;;;;;26.00;10.23;;;;;;;;;;4983710;28;20108;-92
2022/12/12 14:46:53;;;;;;;27.00;10.20;;;;;;;;;;5007661;28;20030;-91
2022/12/12 14:49:19;;;;;;;30.10;10.77;;;;;;;;;;4989991;28;20110;-93
2022/12/12 14:51:48;;;;;;;27.83;10.68;;;;;;;;;;4979511;28;20069;-93